Itajai, Brazil
Current Conditions -  °F | °C
As of 7:00 PM on Monday 22 Dec 2014 (Local Time) from SBNF Reporting Station
Broken Clouds Broken Clouds  
Wind Chill: 75°   Ceiling: 6000
Heat Index: 75°   Visibility: 6mi
Dew Point: 68°   Wind: 7mph
Humidity: 78%   Direction: 200°SSW
Pressure: 29.88"   Gusts: NA
Location:  26.9°S, 48.68°W
Report Text: SBNF 222100Z 20006KT 9999 FEW030 BKN060 24/20 Q1012
Loading
Personal Weather Stations






























Interactive Weather Map New forecast layout! Learn more

10-Day Weather Forecast

Advertisements
Track Severe Weather on mobile